Latest Weather Observations for Cape Leeuwin

IDW60801

Issued at 7:33 pm WST Friday 27 March 2015 (issued every 30 minutes, with the page automatically refreshed every 10 minutes)

About weather observations | Map of weather stations | Latest weather observations for WA | Other Formats
Station Details ID: 009518 Name: CAPE LEEUWIN Lat: -34.37 Lon: 115.14 Height: 13.0 m
Data from the previous 72 hours. | See also: Recent months at Cape Leeuwin
Date/Time
WST
Temp
°C
App
Temp
°C
Dew
Point
Rel
Hum
%
Delta-T
°C
Wind Press
QNH
hPa
Press
MSL
hPa
Rain
since 9 am
mm
Dir
 
Spd
km/h
Gust
km/h
Spd
kts
Gust
kts
27/07:30pm 18.8 16.8 15.0 78 2.2 SSE 19 26 10 14 1020.5 1020.5 0.0
27/07:00pm 19.0 16.9 15.2 78 2.2 SSE 20 26 11 14 1020.3 1020.3 0.0
27/06:30pm 19.2 16.8 15.5 79 2.2 S 22 30 12 16 1020.2 1020.2 0.0
27/06:00pm 19.7 18.1 16.4 81 2.0 S 20 26 11 14 1020.1 1020.1 0.0
27/05:30pm 20.4 18.1 16.6 79 2.3 SSW 24 28 13 15 1019.8 1019.8 0.0
27/05:00pm 21.3 19.1 16.9 76 2.7 SSW 24 28 13 15 1019.5 1019.5 0.0
27/04:30pm 21.5 18.1 16.7 74 2.9 SW 30 35 16 19 1019.5 1019.5 0.0
27/04:00pm 22.0 18.7 17.1 74 3.0 SW 30 35 16 19 1019.6 1019.6 0.0
27/03:30pm 22.7 20.1 17.7 73 3.1 SW 28 33 15 18 1019.6 1019.6 0.0
27/03:00pm 23.8 22.4 17.9 69 3.7 SW 22 28 12 15 1019.6 1019.6 0.0
27/02:30pm 23.1 20.6 17.1 69 3.7 WNW 26 30 14 16 1019.4 1019.4 0.0
27/02:00pm 23.1 20.0 16.5 66 4.0 WNW 28 32 15 17 1019.6 1019.6 0.0
27/01:30pm 22.8 19.3 15.4 63 4.4 WNW 28 32 15 17 1019.7 1019.7 0.0
27/01:00pm 22.8 19.9 16.0 65 4.1 WNW 26 32 14 17 1019.9 1019.9 0.0
27/12:30pm 22.7 19.8 16.1 66 4.0 WNW 26 32 14 17 1020.3 1020.3 0.0
27/12:00pm 22.2 19.6 15.9 67 3.8 WNW 24 28 13 15 1020.6 1020.6 0.0
27/11:30am 22.6 19.7 15.0 62 4.5 WNW 24 28 13 15 1020.9 1020.9 0.0
27/11:00am 22.6 20.6 15.0 62 4.5 WNW 19 24 10 13 1021.1 1021.1 0.0
27/10:30am 23.0 23.2 15.7 63 4.4 WNW 9 15 5 8 1021.5 1021.5 0.0
27/10:00am 22.3 20.6 14.6 61 4.5 W 17 20 9 11 1021.5 1021.5 0.0
27/09:30am 21.7 20.0 14.7 64 4.1 WNW 17 20 9 11 1021.4 1021.4 0.0
27/09:00am 23.3 20.7 10.8 45 6.9 N 15 20 8 11 1021.4 1021.4 0.0
27/08:30am 21.6 19.8 10.8 50 5.9 N 11 24 6 13 1021.4 1021.4 0.0
27/08:00am 19.3 15.5 9.9 54 5.0 NNE 20 26 11 14 1021.1 1021.1 0.0
27/07:30am 18.9 14.2 9.4 54 5.0 NNE 24 32 13 17 1020.9 1020.9 0.0
27/07:00am 18.1 13.5 9.7 58 4.4 NNE 24 32 13 17 1020.8 1020.8 0.0
27/06:30am 17.7 15.6 11.0 65 3.6 ENE 13 30 7 16 1020.7 1020.7 0.0
27/06:00am 18.5 17.6 13.6 73 2.8 WNW 11 17 6 9 1020.8 1020.8 0.0
27/05:30am 17.7 12.9 11.8 68 3.2 NE 28 32 15 17 1020.4 1020.4 0.0
27/05:00am 17.9 13.6 12.1 69 3.2 NE 26 32 14 17 1020.3 1020.3 0.0
27/04:30am 17.8 13.4 11.6 67 3.4 NE 26 33 14 18 1020.4 1020.4 0.0
27/04:00am 17.8 12.8 10.9 64 3.7 NNE 28 33 15 18 1020.3 1020.3 0.0
27/03:30am 17.9 12.7 10.2 60 4.1 NE 28 35 15 19 1020.4 1020.4 0.0
27/03:00am 18.2 13.2 9.6 57 4.5 NNE 26 32 14 17 1020.6 1020.6 0.0
27/02:30am 18.2 12.1 9.6 57 4.5 NE 32 41 17 22 1020.6 1020.6 0.0
27/02:00am 18.5 12.2 9.6 56 4.7 NE 33 43 18 23 1020.7 1020.7 0.0
27/01:30am 18.3 12.4 10.4 60 4.2 NE 32 39 17 21 1021.1 1021.1 0.0
27/01:00am 18.4 13.3 10.6 60 4.2 NE 28 35 15 19 1021.4 1021.4 0.0
27/12:30am 18.7 13.4 12.4 67 3.5 ENE 32 39 17 21 1021.3 1021.3 0.0
27/12:00am 19.5 15.4 12.7 65 3.8 ENE 26 32 14 17 1021.5 1021.5 0.0
 
Date/Time
WST
Temp
°C
App
Temp
°C
Dew
Point
Rel
Hum
%
Delta-T
°C
Wind Press
QNH
hPa
Press
MSL
hPa
Rain
since 9 am
mm
Dir
 
Spd
km/h
Gust
km/h
Spd
kts
Gust
kts
26/11:30pm 19.5 17.1 16.3 82 1.9 E 24 30 13 16 1021.7 1021.7 0.0
26/11:00pm 19.9 19.0 17.8 88 1.3 E 19 20 10 11 1021.9 1021.9 0.0
26/10:30pm 20.1 19.8 18.3 89 1.1 E 17 19 9 10 1022.2 1022.2 0.0
26/10:00pm 20.0 20.4 18.2 89 1.1 E 13 17 7 9 1022.3 1022.3 0.0
26/09:30pm 20.2 20.3 18.4 89 1.1 E 15 19 8 10 1022.4 1022.4 0.0
26/09:00pm 20.3 20.3 18.2 88 1.3 ESE 15 20 8 11 1022.5 1022.5 0.0
26/08:30pm 20.3 19.6 18.2 88 1.3 ESE 19 24 10 13 1022.6 1022.6 0.0
26/08:00pm 20.3 19.3 17.9 86 1.5 ESE 20 24 11 13 1022.6 1022.6 0.0
26/07:30pm 20.3 19.4 17.7 85 1.6 ESE 19 22 10 12 1022.5 1022.5 0.0
26/07:00pm 20.4 19.8 17.5 83 1.8 ESE 17 20 9 11 1022.6 1022.6 0.0
26/06:30pm 20.3 18.1 17.0 81 2.0 ESE 24 30 13 16 1022.3 1022.3 0.0
26/06:00pm 20.5 17.9 16.9 80 2.2 SE 26 35 14 19 1022.2 1022.2 0.0
26/05:30pm 20.8 18.1 16.7 77 2.5 SE 26 32 14 17 1022.3 1022.3 0.0
26/05:00pm 21.3 19.5 17.0 76 2.6 SE 22 28 12 15 1022.2 1022.2 0.0
26/04:30pm 21.6 19.2 16.5 73 3.1 SE 24 32 13 17 1022.1 1022.1 0.0
26/04:00pm 22.4 20.0 16.3 68 3.7 SE 24 32 13 17 1022.2 1022.2 0.0
26/03:30pm 22.6 20.1 16.1 66 3.9 SE 24 32 13 17 1022.2 1022.2 0.0
26/03:00pm 22.5 20.2 15.6 65 4.1 SE 22 28 12 15 1022.6 1022.6 0.0
26/02:30pm 23.0 20.6 15.3 62 4.6 SE 22 30 12 16 1022.9 1022.9 0.0
26/02:00pm 22.9 20.3 13.8 56 5.3 SE 20 28 11 15 1023.2 1023.2 0.0
26/01:30pm 23.0 20.5 14.1 57 5.2 SE 20 26 11 14 1023.5 1023.5 0.0
26/01:00pm 22.6 20.0 13.8 57 5.1 SE 20 26 11 14 1023.9 1023.9 0.0
26/12:30pm 21.9 18.9 12.5 55 5.3 SE 20 24 11 13 1024.1 1024.1 0.0
26/12:00pm 21.8 19.0 12.6 56 5.2 SE 19 24 10 13 1024.5 1024.5 0.0
26/11:30am 21.6 18.5 11.7 53 5.5 ESE 19 22 10 12 1024.7 1024.7 0.0
26/11:00am 20.9 17.3 11.7 55 5.1 E 22 26 12 14 1025.0 1025.0 0.0
26/10:30am 19.9 16.0 12.2 61 4.3 E 24 26 13 14 1025.4 1025.4 0.0
26/10:00am 18.9 14.5 11.6 62 4.0 E 26 32 14 17 1025.6 1025.6 0.0
26/09:30am 18.1 12.4 11.3 64 3.7 E 32 37 17 20 1025.6 1025.6 0.0
26/09:00am 17.4 11.0 10.6 64 3.6 E 35 41 19 22 1025.7 1025.7 0.0
26/08:30am 17.0 9.8 10.6 66 3.4 ENE 39 44 21 24 1025.8 1025.8 0.0
26/08:00am 16.8 10.1 11.0 68 3.1 ENE 37 43 20 23 1026.1 1026.1 0.0
26/07:30am 16.6 9.9 11.0 69 3.0 ENE 37 43 20 23 1026.1 1026.1 0.0
26/07:00am 16.1 9.4 11.0 72 2.7 ENE 37 44 20 24 1026.2 1026.2 0.0
26/06:30am 15.9 8.5 11.2 73 2.5 ENE 41 46 22 25 1025.9 1025.9 0.0
26/06:00am 16.1 9.1 11.4 73 2.5 ENE 39 48 21 26 1025.6 1025.6 0.0
26/05:30am 16.1 8.3 11.2 72 2.6 ENE 43 48 23 26 1025.4 1025.4 0.0
26/05:00am 16.1 8.2 11.4 73 2.5 ENE 44 52 24 28 1025.3 1025.3 0.0
26/04:30am 16.3 8.8 12.1 76 2.3 ENE 43 50 23 27 1025.1 1025.1 0.0
26/04:00am 16.1 8.3 11.8 75 2.3 ENE 44 52 24 28 1025.0 1025.0 0.0
26/03:30am 16.1 8.4 11.6 74 2.4 ENE 43 48 23 26 1025.2 1025.2 0.0
26/03:00am 16.0 8.7 11.5 74 2.4 ENE 41 48 22 26 1025.3 1025.3 0.0
26/02:30am 16.1 8.4 12.0 76 2.2 ENE 44 54 24 29 1025.5 1025.5 0.0
26/02:00am 16.4 8.5 11.6 73 2.6 E 44 50 24 27 1025.7 1025.7 0.0
26/01:30am 16.9 9.8 12.1 73 2.6 ENE 41 50 22 27 1025.9 1025.9 0.0
26/01:00am 17.0 10.0 12.5 75 2.5 ENE 41 48 22 26 1026.2 1026.2 0.0
26/12:30am 17.2 10.3 12.9 76 2.4 E 41 50 22 27 1026.1 1026.1 0.0
26/12:00am 17.4 10.8 12.7 74 2.6 E 39 46 21 25 1026.1 1026.1 0.0
 
Date/Time
WST
Temp
°C
App
Temp
°C
Dew
Point
Rel
Hum
%
Delta-T
°C
Wind Press
QNH
hPa
Press
MSL
hPa
Rain
since 9 am
mm
Dir
 
Spd
km/h
Gust
km/h
Spd
kts
Gust
kts
25/11:30pm 17.8 11.8 13.2 74 2.6 E 37 44 20 24 1026.3 1026.3 0.0
25/11:00pm 18.0 10.8 13.0 72 2.8 E 43 48 23 26 1026.1 1026.1 0.0
25/10:30pm 18.1 10.5 13.5 74 2.6 E 46 54 25 29 1025.8 1025.8 0.0
25/10:00pm 18.2 10.9 14.4 78 2.2 E 46 54 25 29 1025.9 1025.9 0.0
25/09:30pm 18.4 11.3 14.0 75 2.5 ESE 44 54 24 29 1026.0 1026.0 0.0
25/09:00pm 18.4 11.4 14.2 76 2.4 ESE 44 54 24 29 1026.1 1026.1 0.0
25/08:30pm 18.6 11.8 14.8 78 2.2 ESE 44 54 24 29 1026.0 1026.0 0.0
25/08:00pm 18.8 12.3 15.2 79 2.1 ESE 43 56 23 30 1025.7 1025.7 0.0
25/07:30pm 18.8 12.3 15.2 79 2.1 ESE 43 54 23 29 1025.5 1025.5 0.0
25/07:00pm 18.8 12.4 15.4 80 2.0 SE 43 54 23 29 1025.4 1025.4 0.0
25/06:30pm 19.1 12.6 15.5 79 2.1 SE 44 59 24 32 1025.1 1025.1 0.0
25/06:00pm 19.0 12.0 15.4 79 2.1 SE 46 59 25 32 1025.0 1025.0 0.0
25/05:30pm 19.2 12.7 15.6 79 2.1 SE 44 61 24 33 1025.0 1025.0 0.0
25/05:00pm 19.5 12.5 15.2 76 2.5 SE 46 56 25 30 1024.9 1024.9 0.0
25/04:30pm 19.7 13.1 15.3 76 2.6 SE 44 59 24 32 1024.8 1024.8 0.0
25/04:00pm 20.3 14.0 15.7 75 2.7 SE 43 54 23 29 1025.0 1025.0 0.0
25/03:30pm 20.4 13.8 14.9 70 3.2 SE 43 52 23 28 1025.2 1025.2 0.0
25/03:00pm 20.7 14.8 15.6 72 3.0 SE 41 50 22 27 1025.4 1025.4 0.0
25/02:30pm 20.7 15.0 15.3 71 3.2 SE 39 50 21 27 1025.6 1025.6 0.0
25/02:00pm 20.6 14.9 15.2 71 3.2 SE 39 52 21 28 1025.8 1025.8 0.0
25/01:30pm 20.6 15.1 14.8 69 3.4 SE 37 46 20 25 1026.1 1026.1 0.0
25/01:00pm 21.0 15.9 14.8 67 3.6 SE 35 44 19 24 1026.5 1026.5 0.0
25/12:30pm 20.9 16.1 14.5 67 3.7 SE 33 41 18 22 1026.7 1026.7 0.0
25/12:00pm 20.5 15.5 13.3 63 4.1 SE 32 39 17 21 1026.9 1026.9 0.0
25/11:30am 20.6 16.4 13.4 63 4.1 ESE 28 35 15 19 1027.3 1027.3 0.0
25/11:00am 20.4 15.3 13.2 63 4.1 ESE 32 37 17 20 1027.5 1027.5 0.0
25/10:30am 20.9 16.7 13.6 63 4.2 E 28 33 15 18 1027.6 1027.6 0.0
25/10:00am 19.6 16.6 12.6 64 3.9 E 20 26 11 14 1027.6 1027.6 0.0
25/09:30am 18.7 15.3 12.6 67 3.4 E 22 26 12 14 1027.6 1027.6 0.0
25/09:00am 18.3 15.2 12.1 67 3.4 ENE 20 24 11 13 1027.6 1027.6 0.0
25/08:30am 17.9 14.5 11.2 65 3.6 ENE 20 24 11 13 1027.5 1027.5 0.0
25/08:00am 17.8 15.0 12.6 71 2.9 ENE 19 24 10 13 1027.2 1027.2 0.0
25/07:30am 17.5 15.0 12.2 71 2.9 E 17 20 9 11 1026.9 1026.9 0.0
25/07:00am 16.4 14.2 12.2 76 2.3 ENE 15 19 8 10 1026.6 1026.6 0.0
25/06:30am 15.9 13.3 12.0 77 2.1 ENE 17 19 9 10 1026.5 1026.5 0.0
25/06:00am 16.1 13.9 12.0 76 2.2 ENE 15 17 8 9 1026.2 1026.2 0.0
25/05:30am 15.7 13.5 12.0 78 2.0 NE 15 17 8 9 1026.0 1026.0 0.0
25/05:00am 15.8 13.7 12.3 80 1.9 NE 15 19 8 10 1025.7 1025.7 0.0
25/04:30am 15.9 13.2 11.8 76 2.2 ENE 17 20 9 11 1025.5 1025.5 0.0
25/04:00am 15.7 13.2 11.0 73 2.5 NE 15 20 8 11 1025.4 1025.4 0.0
25/03:30am 15.6 13.5 11.1 74 2.4 NE 13 19 7 10 1025.2 1025.2 0.0
25/03:00am 16.9 15.3 12.7 76 2.3 ENE 13 17 7 9 1025.1 1025.1 0.0
25/02:30am 16.9 14.8 12.3 74 2.5 ENE 15 20 8 11 1025.2 1025.2 0.0
25/02:00am 17.1 14.6 12.4 74 2.6 ENE 17 22 9 12 1025.3 1025.3 0.0
25/01:30am 17.3 14.8 12.4 73 2.7 ENE 17 22 9 12 1025.3 1025.3 0.0
25/01:00am 16.9 14.5 11.5 70 2.9 ENE 15 20 8 11 1025.4 1025.4 0.0
25/12:30am 17.4 15.1 11.9 70 3.0 ENE 15 19 8 10 1025.4 1025.4 0.0
25/12:00am 17.8 14.9 12.4 70 3.0 ESE 19 28 10 15 1025.5 1025.5 0.0
 
Date/Time
WST
Temp
°C
App
Temp
°C
Dew
Point
Rel
Hum
%
Delta-T
°C
Wind Press
QNH
hPa
Press
MSL
hPa
Rain
since 9 am
mm
Dir
 
Spd
km/h
Gust
km/h
Spd
kts
Gust
kts
24/11:30pm 18.2 15.0 12.0 67 3.4 ESE 20 26 11 14 1025.6 1025.6 0.0
24/11:00pm 18.2 15.0 12.0 67 3.4 SE 20 26 11 14 1025.6 1025.6 0.0
24/10:30pm 18.2 15.0 12.0 67 3.4 SE 20 28 11 15 1025.7 1025.7 0.0
24/10:00pm 17.9 13.9 11.9 68 3.3 SE 24 30 13 16 1025.7 1025.7 0.0
24/09:30pm 18.2 14.4 11.0 63 3.9 SE 22 28 12 15 1025.7 1025.7 0.0
24/09:00pm 18.5 15.2 11.5 63 3.8 SE 20 26 11 14 1025.6 1025.6 0.0
24/08:30pm 18.5 15.2 11.5 63 3.8 SE 20 26 11 14 1025.4 1025.4 0.0
24/08:00pm 18.4 14.8 10.5 60 4.2 SSE 20 24 11 13 1025.2 1025.2 0.0

Other Formats:

Comma delimited format used in spreadsheet applications
http://www.bom.gov.au/fwo/IDW60801/IDW60801.94601.axf

JavaScript Object Notation format (JSON) in row-major order
http://www.bom.gov.au/fwo/IDW60801/IDW60801.94601.json